createdAt,value
2023-02-03T00:00:01.046Z,7.30
2023-02-03T00:02:28.133Z,7.30
2023-02-03T00:04:55.373Z,7.30
2023-02-03T00:07:22.940Z,7.30
2023-02-03T00:09:50.174Z,7.20
2023-02-03T00:12:17.250Z,7.30
2023-02-03T00:14:45.264Z,7.30
2023-02-03T00:17:12.348Z,7.30
2023-02-03T00:19:39.400Z,7.30
2023-02-03T00:22:06.492Z,7.30
2023-02-03T00:24:33.611Z,7.30
2023-02-03T00:27:00.688Z,7.20
2023-02-03T00:29:27.898Z,7.20
2023-02-03T00:31:55.141Z,7.20
2023-02-03T00:34:22.292Z,7.20
2023-02-03T00:36:49.396Z,7.20
2023-02-03T00:39:16.791Z,7.20
2023-02-03T00:41:43.963Z,7.10
2023-02-03T00:44:11.126Z,7.20
2023-02-03T00:46:38.362Z,7.20
2023-02-03T00:49:05.542Z,7.20
2023-02-03T00:51:33.784Z,7.20
2023-02-03T00:54:03.485Z,7.30
2023-02-03T00:56:30.632Z,7.30
2023-02-03T00:58:57.677Z,7.30
2023-02-03T01:01:24.810Z,7.30
2023-02-03T01:03:52.017Z,7.20
2023-02-03T01:06:21.047Z,7.30
2023-02-03T01:08:48.934Z,7.30
2023-02-03T01:11:25.095Z,7.30
2023-02-03T01:13:53.355Z,7.30
2023-02-03T01:16:22.747Z,7.40
2023-02-03T01:18:50.648Z,7.30
2023-02-03T01:21:21.445Z,7.30
2023-02-03T01:23:48.637Z,7.30
2023-02-03T01:26:17.491Z,7.30
2023-02-03T01:28:44.904Z,7.40
2023-02-03T01:31:24.577Z,7.40
2023-02-03T01:33:54.391Z,7.40
2023-02-03T01:36:25.018Z,7.40
2023-02-03T01:38:52.152Z,7.40
2023-02-03T01:41:21.908Z,7.40
2023-02-03T01:43:51.918Z,7.50
2023-02-03T01:46:30.823Z,7.40
2023-02-03T01:49:38.349Z,7.40
2023-02-03T01:52:06.066Z,7.50
2023-02-03T01:54:38.419Z,7.40
2023-02-03T01:57:20.119Z,7.40
2023-02-03T01:59:48.354Z,7.50
2023-02-03T02:02:15.800Z,7.50
2023-02-03T02:05:08.378Z,7.50
2023-02-03T02:07:37.890Z,7.50
2023-02-03T02:10:06.265Z,7.50
2023-02-03T02:12:33.378Z,7.50
2023-02-03T02:15:00.547Z,7.50
2023-02-03T02:18:00.198Z,7.50
2023-02-03T02:20:52.619Z,7.50
2023-02-03T02:23:28.301Z,7.50
2023-02-03T02:26:13.157Z,7.50
2023-02-03T02:28:58.101Z,7.50
2023-02-03T02:31:42.173Z,7.50
2023-02-03T02:34:22.873Z,7.50
2023-02-03T02:37:23.717Z,7.50
2023-02-03T02:40:10.189Z,7.50
2023-02-03T02:43:05.381Z,7.50
2023-02-03T02:45:46.686Z,7.50
2023-02-03T02:48:32.313Z,7.50
2023-02-03T02:51:02.596Z,7.40
2023-02-03T02:53:35.184Z,7.50
2023-02-03T02:56:06.462Z,7.50
2023-02-03T02:58:36.585Z,7.40
2023-02-03T03:01:04.049Z,7.40
2023-02-03T03:03:32.130Z,7.40
2023-02-03T03:06:17.317Z,7.40
2023-02-03T03:08:49.609Z,7.40
2023-02-03T03:11:17.741Z,7.40
2023-02-03T03:13:51.801Z,7.40
2023-02-03T03:16:23.425Z,7.50
2023-02-03T03:19:07.225Z,7.40
2023-02-03T03:21:46.210Z,7.50
2023-02-03T03:24:20.338Z,7.40
2023-02-03T03:27:03.153Z,7.40
2023-02-03T03:29:38.492Z,7.40
2023-02-03T03:32:06.093Z,7.40
2023-02-03T03:34:33.525Z,7.30
2023-02-03T03:37:11.861Z,7.30
2023-02-03T03:39:57.944Z,7.30
2023-02-03T03:42:31.872Z,7.30
2023-02-03T03:45:08.539Z,7.40
2023-02-03T03:47:48.730Z,7.40
2023-02-03T03:50:24.062Z,7.40
2023-02-03T03:52:53.239Z,7.40
2023-02-03T03:55:21.802Z,7.50
2023-02-03T03:58:14.985Z,7.50
2023-02-03T04:00:43.924Z,7.40
2023-02-03T04:03:20.819Z,7.40
2023-02-03T04:05:48.287Z,7.40
2023-02-03T04:08:15.278Z,7.40
2023-02-03T04:10:44.123Z,7.40
2023-02-03T04:13:12.044Z,7.40
2023-02-03T04:15:39.374Z,7.40
2023-02-03T04:18:06.876Z,7.40
2023-02-03T04:20:34.541Z,7.40
2023-02-03T04:23:01.722Z,7.40
2023-02-03T04:25:28.792Z,7.40
2023-02-03T04:27:55.996Z,7.40
2023-02-03T04:30:23.719Z,7.40
2023-02-03T04:32:50.762Z,7.40
2023-02-03T04:35:18.081Z,7.50
2023-02-03T04:37:45.272Z,7.40
2023-02-03T04:40:13.255Z,7.50
2023-02-03T04:42:41.391Z,7.40
2023-02-03T04:45:10.783Z,7.40
2023-02-03T04:47:38.442Z,7.40
2023-02-03T04:50:05.997Z,7.40
2023-02-03T04:52:33.263Z,7.40
2023-02-03T04:55:00.395Z,7.30
2023-02-03T04:57:27.559Z,7.30
2023-02-03T04:59:54.555Z,7.40
2023-02-03T05:02:21.574Z,7.30
2023-02-03T05:04:48.643Z,7.40
2023-02-03T05:07:15.684Z,7.40
2023-02-03T05:09:42.687Z,7.40
2023-02-03T05:12:09.728Z,7.40
2023-02-03T05:14:36.858Z,7.40
2023-02-03T05:17:03.923Z,7.40
2023-02-03T05:19:30.959Z,7.40
2023-02-03T05:21:57.939Z,7.40
2023-02-03T05:24:24.982Z,7.40
2023-02-03T05:26:51.968Z,7.40
2023-02-03T05:29:19.074Z,7.40
2023-02-03T05:31:46.343Z,7.40
2023-02-03T05:34:13.408Z,7.40
2023-02-03T05:36:40.505Z,7.40
2023-02-03T05:39:07.708Z,7.40
2023-02-03T05:41:53.157Z,7.50
2023-02-03T05:44:25.280Z,7.40
2023-02-03T05:46:57.079Z,7.40
2023-02-03T05:49:24.826Z,7.40
2023-02-03T05:51:53.386Z,7.40
2023-02-03T05:54:20.680Z,7.40
2023-02-03T05:56:48.173Z,7.50
2023-02-03T05:59:15.352Z,7.50
2023-02-03T06:01:42.605Z,7.40
2023-02-03T06:04:09.795Z,7.50
2023-02-03T06:06:37.007Z,7.40
2023-02-03T06:09:07.661Z,7.50
2023-02-03T06:11:36.097Z,7.50
2023-02-03T06:14:04.058Z,7.50
2023-02-03T06:16:31.379Z,7.40
2023-02-03T06:18:59.781Z,7.50
2023-02-03T06:21:26.976Z,7.50
2023-02-03T06:23:54.899Z,7.50
2023-02-03T06:26:21.889Z,7.50
2023-02-03T06:28:49.015Z,7.50
2023-02-03T06:31:16.234Z,7.50
2023-02-03T06:33:43.335Z,7.40
2023-02-03T06:36:10.679Z,7.50
2023-02-03T06:38:37.805Z,7.40
2023-02-03T06:41:04.973Z,7.50
2023-02-03T06:43:32.474Z,7.40
2023-02-03T06:45:59.493Z,7.50
2023-02-03T06:48:26.925Z,7.50
2023-02-03T06:50:54.020Z,7.50
2023-02-03T06:53:21.113Z,7.50
2023-02-03T06:55:48.218Z,7.50
2023-02-03T06:58:15.484Z,7.50
2023-02-03T07:00:42.511Z,7.50
2023-02-03T07:03:09.606Z,7.50
2023-02-03T07:05:37.109Z,7.50
2023-02-03T07:08:04.276Z,7.60
2023-02-03T07:10:31.417Z,7.60
2023-02-03T07:13:03.936Z,7.60
2023-02-03T07:15:31.107Z,7.60
2023-02-03T07:17:58.167Z,7.60
2023-02-03T07:20:25.605Z,7.60
2023-02-03T07:22:56.411Z,7.60
2023-02-03T07:25:24.381Z,7.60
2023-02-03T07:27:52.031Z,7.70
2023-02-03T07:30:19.452Z,7.70
2023-02-03T07:32:50.966Z,7.70
2023-02-03T07:35:18.826Z,7.70
2023-02-03T07:37:46.195Z,7.70
2023-02-03T07:40:16.106Z,7.60
2023-02-03T07:42:44.389Z,7.70
2023-02-03T07:45:12.806Z,7.70
2023-02-03T07:47:41.430Z,7.70
2023-02-03T07:50:09.340Z,7.70
2023-02-03T07:52:37.187Z,7.70
2023-02-03T07:55:05.134Z,7.70
2023-02-03T07:57:32.391Z,7.70
2023-02-03T07:59:59.452Z,7.70
2023-02-03T08:02:26.519Z,7.70
2023-02-03T08:04:53.698Z,7.70
2023-02-03T08:07:20.823Z,7.70
2023-02-03T08:09:47.902Z,7.70
2023-02-03T08:12:15.073Z,7.70
2023-02-03T08:14:42.181Z,7.70
2023-02-03T08:17:09.297Z,7.70
2023-02-03T08:19:36.500Z,7.70
2023-02-03T08:22:03.558Z,7.70
2023-02-03T08:24:30.634Z,7.70
2023-02-03T08:26:57.787Z,7.70
2023-02-03T08:29:24.865Z,7.70
2023-02-03T08:31:52.020Z,7.70
2023-02-03T08:34:19.257Z,7.70
2023-02-03T08:36:46.427Z,7.70
2023-02-03T08:39:13.593Z,7.70
2023-02-03T08:41:40.677Z,7.70
2023-02-03T08:44:07.757Z,7.70
2023-02-03T08:46:36.512Z,7.70
2023-02-03T08:49:03.768Z,7.70
2023-02-03T08:51:30.856Z,7.70
2023-02-03T08:53:57.941Z,7.70
2023-02-03T08:56:26.729Z,7.70
2023-02-03T08:58:55.912Z,7.60
2023-02-03T09:01:23.135Z,7.60
2023-02-03T09:03:50.272Z,7.60
2023-02-03T09:06:17.424Z,7.50
2023-02-03T09:08:46.178Z,7.50
2023-02-03T09:11:17.081Z,7.50
2023-02-03T09:13:48.746Z,7.50
2023-02-03T09:16:18.503Z,7.50
2023-02-03T09:18:46.578Z,7.50
2023-02-03T09:21:31.519Z,7.50
2023-02-03T09:24:03.961Z,7.60
2023-02-03T09:26:31.319Z,7.60
2023-02-03T09:28:58.848Z,7.50
2023-02-03T09:31:26.030Z,7.50
2023-02-03T09:33:53.138Z,7.50
2023-02-03T09:36:20.262Z,7.50
2023-02-03T09:38:47.445Z,7.50
2023-02-03T09:41:25.511Z,7.50
2023-02-03T09:44:11.614Z,7.50
2023-02-03T09:46:44.687Z,7.50
2023-02-03T09:49:14.690Z,7.50
2023-02-03T09:51:47.431Z,7.50
2023-02-03T09:54:24.778Z,7.50
2023-02-03T09:56:55.841Z,7.50
2023-02-03T09:59:23.351Z,7.40
2023-02-03T10:01:53.491Z,7.40
2023-02-03T10:04:37.967Z,7.40
2023-02-03T10:07:36.857Z,7.40
2023-02-03T10:10:30.943Z,7.50
2023-02-03T10:13:06.761Z,7.50
2023-02-03T10:15:53.201Z,7.50
2023-02-03T10:18:28.732Z,7.50
2023-02-03T10:21:03.738Z,7.50
2023-02-03T10:23:40.143Z,7.50
2023-02-03T10:26:14.305Z,7.40
2023-02-03T10:28:44.471Z,7.50
2023-02-03T10:31:24.403Z,7.50
2023-02-03T10:34:11.832Z,7.50
2023-02-03T10:36:58.843Z,7.50
2023-02-03T10:39:46.138Z,7.50
2023-02-03T10:42:14.280Z,7.50
2023-02-03T10:44:45.122Z,7.50
2023-02-03T10:47:36.427Z,7.50
2023-02-03T10:50:34.076Z,7.50
2023-02-03T10:53:34.401Z,7.40
2023-02-03T10:56:01.856Z,7.40
2023-02-03T10:58:31.337Z,7.40
2023-02-03T11:01:13.457Z,7.40
2023-02-03T11:03:54.062Z,7.40
2023-02-03T11:06:22.235Z,7.30
2023-02-03T11:08:51.351Z,7.30
2023-02-03T11:11:25.245Z,7.30
2023-02-03T11:14:11.736Z,7.20
2023-02-03T11:16:41.211Z,7.20
2023-02-03T11:19:19.466Z,7.20
2023-02-03T11:21:53.201Z,7.20
2023-02-03T11:24:23.989Z,7.20
2023-02-03T11:26:56.370Z,7.20
2023-02-03T11:29:29.472Z,7.20
2023-02-03T11:32:02.703Z,7.20
2023-02-03T11:34:34.586Z,7.20
2023-02-03T11:37:28.455Z,7.20
2023-02-03T11:40:15.914Z,7.20
2023-02-03T11:42:45.683Z,7.20
2023-02-03T11:45:26.835Z,7.20
2023-02-03T11:48:15.843Z,7.20
2023-02-03T11:50:47.967Z,7.30
2023-02-03T11:53:42.307Z,7.30
2023-02-03T11:56:47.363Z,7.30
2023-02-03T11:59:39.919Z,7.40
2023-02-03T12:02:26.020Z,7.40
2023-02-03T12:05:20.631Z,7.40
2023-02-03T12:07:47.666Z,7.40
2023-02-03T12:10:42.460Z,7.50
2023-02-03T12:13:23.889Z,7.50
2023-02-03T12:16:09.790Z,7.50
2023-02-03T12:19:01.757Z,7.50
2023-02-03T12:21:51.668Z,7.60
2023-02-03T12:24:45.588Z,7.60
2023-02-03T12:27:31.312Z,7.60
2023-02-03T12:30:11.667Z,7.60
2023-02-03T12:32:50.003Z,7.70
2023-02-03T12:35:42.058Z,7.70
2023-02-03T12:38:14.649Z,7.70
2023-02-03T12:40:59.971Z,7.80
2023-02-03T12:43:30.236Z,7.80
2023-02-03T12:46:22.566Z,7.80
2023-02-03T12:48:55.802Z,7.80
2023-02-03T12:51:56.177Z,7.80
2023-02-03T12:54:39.917Z,7.80
2023-02-03T12:57:35.796Z,7.80
2023-02-03T13:00:36.480Z,7.80
2023-02-03T13:03:41.220Z,7.90
2023-02-03T13:06:32.559Z,7.90
2023-02-03T13:09:20.853Z,7.90
2023-02-03T13:12:08.328Z,7.90
2023-02-03T13:14:41.420Z,7.90
2023-02-03T13:17:13.780Z,7.90
2023-02-03T13:20:14.935Z,7.90
2023-02-03T13:22:42.232Z,7.90
2023-02-03T13:25:23.836Z,7.90
2023-02-03T13:28:07.852Z,7.90
2023-02-03T13:30:41.272Z,7.90
2023-02-03T13:33:40.042Z,7.80
2023-02-03T13:36:28.158Z,7.80
2023-02-03T13:39:01.200Z,7.80
2023-02-03T13:41:40.454Z,7.80
2023-02-03T13:44:13.191Z,7.70
2023-02-03T13:46:41.528Z,7.80
2023-02-03T13:49:09.963Z,7.70
2023-02-03T13:51:46.342Z,7.70
2023-02-03T13:54:27.312Z,7.70
2023-02-03T13:57:00.282Z,7.70
2023-02-03T13:59:33.289Z,7.70
2023-02-03T14:02:51.986Z,7.70
2023-02-03T14:05:58.060Z,7.70
2023-02-03T14:08:28.442Z,7.70
2023-02-03T14:11:32.701Z,7.70
2023-02-03T14:14:22.990Z,7.70
2023-02-03T14:16:55.369Z,7.70
2023-02-03T14:19:22.782Z,7.70
2023-02-03T14:21:55.205Z,7.70
2023-02-03T14:24:24.401Z,7.70
2023-02-03T14:26:54.324Z,7.70
2023-02-03T14:29:33.330Z,7.70
2023-02-03T14:32:06.946Z,7.70
2023-02-03T14:34:41.813Z,7.70
2023-02-03T14:37:30.932Z,7.70
2023-02-03T14:40:25.728Z,7.70
2023-02-03T14:43:30.201Z,7.70
2023-02-03T14:46:18.487Z,7.70
2023-02-03T14:49:10.767Z,7.70
2023-02-03T14:51:50.092Z,7.70
2023-02-03T14:54:17.387Z,7.70
2023-02-03T14:57:12.208Z,7.70
2023-02-03T14:59:51.136Z,7.70
2023-02-03T15:02:26.025Z,7.80
2023-02-03T15:05:14.917Z,7.80
2023-02-03T15:07:50.671Z,7.80
2023-02-03T15:10:45.142Z,7.80
2023-02-03T15:13:31.921Z,7.80
2023-02-03T15:16:05.225Z,7.80
2023-02-03T15:18:37.855Z,7.90
2023-02-03T15:21:05.394Z,7.90
2023-02-03T15:23:45.673Z,7.90
2023-02-03T15:26:15.285Z,7.90
2023-02-03T15:28:42.587Z,7.90
2023-02-03T15:31:23.979Z,8.00
2023-02-03T15:33:54.333Z,8.00
2023-02-03T15:36:28.048Z,8.00
2023-02-03T15:39:06.711Z,8.00
2023-02-03T15:41:34.178Z,8.00
2023-02-03T15:44:10.585Z,8.10
2023-02-03T15:46:49.135Z,8.10
2023-02-03T15:49:22.622Z,8.10
2023-02-03T15:52:04.396Z,8.10
2023-02-03T15:54:45.925Z,8.10
2023-02-03T15:57:29.001Z,8.10
2023-02-03T15:59:57.809Z,8.00
2023-02-03T16:02:39.561Z,7.90
2023-02-03T16:05:23.747Z,7.80
2023-02-03T16:07:52.543Z,7.70
2023-02-03T16:10:34.375Z,7.50
2023-02-03T16:13:21.976Z,7.30
2023-02-03T16:16:35.368Z,7.20
2023-02-03T16:19:12.769Z,7.20
2023-02-03T16:21:49.917Z,7.10
2023-02-03T16:24:42.669Z,7.10
2023-02-03T16:27:28.027Z,7.00
2023-02-03T16:30:39.635Z,7.00
2023-02-03T16:33:27.777Z,7.00
2023-02-03T16:36:14.886Z,7.10
2023-02-03T16:39:08.388Z,7.00
2023-02-03T16:41:55.562Z,7.00
2023-02-03T16:44:41.489Z,7.00
2023-02-03T16:47:53.310Z,7.00
2023-02-03T16:50:41.946Z,7.00
2023-02-03T16:53:23.436Z,7.10
2023-02-03T16:55:51.900Z,7.10
2023-02-03T16:58:20.445Z,7.10
2023-02-03T17:00:48.921Z,7.10
2023-02-03T17:03:21.294Z,7.10
2023-02-03T17:05:49.500Z,7.10
2023-02-03T17:08:20.020Z,7.10
2023-02-03T17:10:50.809Z,7.10
2023-02-03T17:13:20.926Z,7.10
2023-02-03T17:15:50.195Z,7.10
2023-02-03T17:18:17.680Z,7.10
2023-02-03T17:20:46.028Z,7.10
2023-02-03T17:23:16.342Z,7.10
2023-02-03T17:25:48.567Z,7.10
2023-02-03T17:28:16.180Z,7.10
2023-02-03T17:30:46.436Z,7.10
2023-02-03T17:33:13.579Z,7.10
2023-02-03T17:35:45.527Z,7.10
2023-02-03T17:38:15.331Z,7.10
2023-02-03T17:54:35.806Z,7.10
2023-02-03T17:57:03.298Z,7.00
2023-02-03T17:59:30.475Z,7.00
2023-02-03T18:01:57.553Z,7.00
2023-02-03T18:04:25.059Z,7.00
2023-02-03T18:06:54.549Z,6.90
2023-02-03T18:09:21.788Z,6.90
2023-02-03T18:11:48.808Z,6.90
2023-02-03T18:14:16.921Z,6.90
2023-02-03T18:16:44.578Z,6.90
2023-02-03T18:19:14.867Z,6.90
2023-02-03T18:21:43.296Z,6.90
2023-02-03T18:24:12.580Z,6.90
2023-02-03T18:26:50.444Z,6.90
2023-02-03T18:29:18.263Z,6.90
2023-02-03T18:31:45.990Z,6.90
2023-02-03T18:34:13.971Z,6.90
2023-02-03T18:36:41.690Z,6.90
2023-02-03T18:39:11.196Z,6.80
2023-02-03T18:41:39.962Z,6.80
2023-02-03T19:05:11.908Z,6.80
2023-02-03T19:07:38.999Z,6.80
2023-02-03T19:10:07.311Z,6.80
2023-02-03T19:12:34.295Z,6.80
2023-02-03T19:15:01.343Z,6.80
2023-02-03T19:17:28.538Z,6.80
2023-02-03T19:19:55.716Z,6.80
2023-02-03T19:22:22.886Z,6.70
2023-02-03T19:24:50.044Z,6.70
2023-02-03T19:27:17.136Z,6.70
2023-02-03T19:29:46.591Z,6.70
2023-02-03T19:32:13.980Z,6.70
2023-02-03T19:34:42.139Z,6.60
2023-02-03T19:37:09.720Z,6.60
2023-02-03T19:39:36.961Z,6.60
2023-02-03T19:42:04.238Z,6.70
2023-02-03T19:44:31.428Z,6.70
2023-02-03T19:46:58.607Z,6.70
2023-02-03T19:49:25.740Z,6.70
2023-02-03T19:51:53.524Z,6.80
2023-02-03T19:54:20.715Z,6.70
2023-02-03T19:56:47.914Z,6.70
2023-02-03T19:59:14.979Z,6.70
2023-02-03T20:01:42.749Z,6.80
2023-02-03T20:04:10.071Z,6.80
2023-02-03T20:06:37.193Z,6.80
2023-02-03T20:09:06.422Z,6.80
2023-02-03T20:11:33.944Z,6.80
2023-02-03T20:14:01.142Z,6.80
2023-02-03T20:16:28.235Z,6.80
2023-02-03T20:18:57.411Z,6.90
2023-02-03T20:21:28.002Z,6.90
2023-02-03T20:23:55.207Z,6.90
2023-02-03T20:26:22.429Z,6.90
2023-02-03T20:28:49.816Z,6.90
2023-02-03T20:31:17.025Z,6.90
2023-02-03T20:33:44.242Z,6.90
2023-02-03T20:36:12.491Z,6.90
2023-02-03T20:38:39.563Z,7.00
2023-02-03T20:41:11.431Z,7.00
2023-02-03T20:43:39.152Z,6.90
2023-02-03T20:46:13.655Z,6.90
2023-02-03T20:48:40.834Z,6.90
2023-02-03T20:51:16.165Z,6.90
2023-02-03T20:53:48.123Z,6.90
2023-02-03T20:56:18.295Z,6.90
2023-02-03T20:58:47.075Z,6.90
2023-02-03T21:01:20.168Z,6.90
2023-02-03T21:04:06.506Z,6.90
2023-02-03T21:06:35.106Z,6.90
2023-02-03T21:09:16.391Z,6.90
2023-02-03T21:11:44.099Z,6.90
2023-02-03T21:14:27.303Z,6.90
2023-02-03T21:16:57.296Z,6.90
2023-02-03T21:19:30.636Z,6.90
2023-02-03T21:21:58.604Z,6.90
2023-02-03T21:24:31.932Z,6.80
2023-02-03T21:27:01.242Z,6.80
2023-02-03T21:29:37.024Z,6.80
2023-02-03T21:32:12.187Z,6.80
2023-02-03T21:34:43.874Z,6.80
2023-02-03T21:37:38.120Z,6.70
2023-02-03T21:40:25.956Z,6.70
2023-02-03T21:42:54.224Z,6.70
2023-02-03T21:45:28.647Z,6.70
2023-02-03T21:47:58.326Z,6.70
2023-02-03T21:50:41.647Z,6.70
2023-02-03T21:53:08.776Z,6.70
2023-02-03T21:55:39.987Z,6.70
2023-02-03T21:58:34.936Z,6.70
2023-02-03T22:01:03.905Z,6.70
2023-02-03T22:03:40.059Z,6.70
2023-02-03T22:06:09.952Z,6.70
2023-02-03T22:08:39.714Z,6.70
2023-02-03T22:11:07.328Z,6.60
2023-02-03T22:13:34.741Z,6.70
2023-02-03T22:16:02.055Z,6.70
2023-02-03T22:18:29.020Z,6.60
2023-02-03T22:20:56.088Z,6.60
2023-02-03T22:23:23.366Z,6.60
2023-02-03T22:25:50.545Z,6.60
2023-02-03T22:28:18.626Z,6.70
2023-02-03T22:30:45.879Z,6.60
2023-02-03T22:33:12.984Z,6.60
2023-02-03T22:35:40.070Z,6.60
2023-02-03T22:38:07.219Z,6.60
2023-02-03T22:40:34.215Z,6.60
2023-02-03T22:43:01.318Z,6.60
2023-02-03T22:45:28.435Z,6.60
2023-02-03T22:47:57.557Z,6.60
2023-02-03T22:50:34.644Z,6.60
2023-02-03T22:53:04.367Z,6.60
2023-02-03T22:55:32.252Z,6.50
2023-02-03T22:57:59.516Z,6.50
2023-02-03T23:00:27.242Z,6.50
2023-02-03T23:02:54.875Z,6.50
2023-02-03T23:05:22.629Z,6.50
2023-02-03T23:07:49.942Z,6.50
2023-02-03T23:10:30.969Z,6.40
2023-02-03T23:13:00.867Z,6.50
2023-02-03T23:15:28.640Z,6.50
2023-02-03T23:17:55.856Z,6.50
2023-02-03T23:20:23.314Z,6.40
2023-02-03T23:22:50.483Z,6.40
2023-02-03T23:25:19.147Z,6.40
2023-02-03T23:27:46.582Z,6.40
2023-02-03T23:30:14.375Z,6.40
2023-02-03T23:32:41.565Z,6.40
2023-02-03T23:35:28.017Z,6.40
2023-02-03T23:37:55.123Z,6.40
2023-02-03T23:40:22.668Z,6.30
2023-02-03T23:42:50.082Z,6.30
2023-02-03T23:45:17.407Z,6.30
2023-02-03T23:47:46.032Z,6.30
2023-02-03T23:50:16.260Z,6.30
2023-02-03T23:52:44.037Z,6.30
2023-02-03T23:55:17.990Z,6.30
2023-02-03T23:57:48.956Z,6.20
